Time;durP1;ratioP1;P1;durP2;ratioP2;P2;SDS_P1;SDS_P2;PMS_P1;PMS_P2;Temp;Humidity;BMP_temperature;BMP_pressure;BME280_temperature;BME280_humidity;BME280_pressure;Samples;Min_cycle;Max_cycle;Signal;HPM_P1;HPM_P2
2023/06/27 00:00:28;;;;;;;2.93;2.10;;;20.70;61.40;;;;;;4897509;29;20566;-59
2023/06/27 00:02:55;;;;;;;3.77;2.10;;;20.70;61.80;;;;;;4903981;29;20273;-59
2023/06/27 00:05:21;;;;;;;2.00;1.80;;;20.70;62.00;;;;;;4904651;29;20573;-59
2023/06/27 00:07:47;;;;;;;6.22;2.05;;;20.60;61.50;;;;;;4904169;29;20179;-59
2023/06/27 00:10:13;;;;;;;2.10;1.90;;;20.50;61.80;;;;;;4906157;29;20245;-58
2023/06/27 00:12:39;;;;;;;2.97;2.10;;;20.50;62.20;;;;;;4903927;29;20530;-59
2023/06/27 00:15:05;;;;;;;3.07;2.20;;;20.50;62.10;;;;;;4907579;29;20458;-59
2023/06/27 00:17:35;;;;;;;2.60;1.77;;;20.50;62.30;;;;;;4904049;29;20332;-59
2023/06/27 00:20:02;;;;;;;2.75;1.90;;;20.40;62.00;;;;;;4906323;29;20219;-57
2023/06/27 00:22:28;;;;;;;2.15;1.90;;;20.60;62.20;;;;;;4907509;29;20217;-57
2023/06/27 00:24:54;;;;;;;3.60;2.07;;;20.60;63.60;;;;;;4904716;29;20189;-58
2023/06/27 00:27:20;;;;;;;3.53;2.07;;;20.50;63.40;;;;;;4907207;29;20545;-58
2023/06/27 00:29:46;;;;;;;2.00;1.80;;;20.60;62.90;;;;;;4910871;29;20453;-57
2023/06/27 00:32:12;;;;;;;2.70;2.37;;;20.60;63.00;;;;;;4902885;29;20736;-57
2023/06/27 00:34:37;;;;;;;3.93;1.97;;;20.70;62.90;;;;;;4909253;29;20203;-57
2023/06/27 00:37:03;;;;;;;3.00;1.90;;;20.70;62.90;;;;;;4906498;29;20213;-60
2023/06/27 00:39:29;;;;;;;3.63;2.10;;;20.90;63.40;;;;;;4906243;29;20205;-59
2023/06/27 00:41:55;;;;;;;5.10;1.70;;;21.00;62.90;;;;;;4908545;29;20202;-60
2023/06/27 00:44:20;;;;;;;5.17;2.30;;;21.00;62.70;;;;;;4910148;29;20213;-58
2023/06/27 00:46:51;;;;;;;3.80;2.37;;;21.00;62.40;;;;;;4900612;29;20190;-59
2023/06/27 00:49:19;;;;;;;3.20;2.20;;;21.00;62.30;;;;;;4904245;29;20201;-56
2023/06/27 00:51:47;;;;;;;4.15;2.33;;;21.20;62.30;;;;;;4907326;29;20195;-58
2023/06/27 00:54:17;;;;;;;2.08;1.88;;;21.40;61.50;;;;;;4905133;29;20281;-59
2023/06/27 00:56:43;;;;;;;2.00;1.80;;;21.50;62.20;;;;;;4900415;29;20567;-57
2023/06/27 00:59:09;;;;;;;2.30;2.10;;;21.70;60.80;;;;;;4903335;29;20680;-57
2023/06/27 01:01:35;;;;;;;4.00;1.80;;;22.10;60.70;;;;;;4902655;29;20585;-59
2023/06/27 01:04:01;;;;;;;5.87;2.20;;;22.30;59.20;;;;;;4908461;29;20507;-58
2023/06/27 01:07:00;;;;;;;2.47;1.70;;;22.10;58.80;;;;;;4904176;29;20460;-58
2023/06/27 01:09:50;;;;;;;2.47;1.93;;;22.00;59.80;;;;;;4906736;29;20190;-59
2023/06/27 01:12:27;;;;;;;5.30;2.33;;;22.10;58.80;;;;;;4908578;29;20461;-59
2023/06/27 01:14:56;;;;;;;2.10;1.90;;;21.70;59.10;;;;;;4902478;29;20514;-59
2023/06/27 01:17:22;;;;;;;2.43;2.17;;;21.60;60.70;;;;;;4902943;29;20530;-57
2023/06/27 01:19:52;;;;;;;6.50;2.30;;;21.80;59.70;;;;;;4907785;29;20541;-58
2023/06/27 01:22:29;;;;;;;3.67;2.23;;;22.00;59.80;;;;;;4907895;29;20458;-58
2023/06/27 01:24:56;;;;;;;2.38;1.98;;;22.10;59.60;;;;;;4901766;29;20554;-58
2023/06/27 01:27:22;;;;;;;3.65;1.75;;;21.80;59.70;;;;;;4901618;29;20711;-59
2023/06/27 01:29:48;;;;;;;2.70;1.70;;;22.00;60.10;;;;;;4902819;29;20214;-59
2023/06/27 01:32:24;;;;;;;2.57;2.07;;;22.00;59.60;;;;;;4905357;29;20478;-59
2023/06/27 01:35:15;;;;;;;3.40;2.40;;;22.10;59.40;;;;;;4901054;29;20213;-59
2023/06/27 01:37:56;;;;;;;2.90;2.03;;;22.00;60.10;;;;;;4901754;29;20946;-59
2023/06/27 01:40:23;;;;;;;5.47;2.20;;;22.20;61.00;;;;;;4904764;29;20453;-59
2023/06/27 01:43:01;;;;;;;3.23;1.80;;;22.30;58.60;;;;;;4902392;29;20599;-58
2023/06/27 01:45:28;;;;;;;3.57;2.20;;;22.30;59.30;;;;;;4904792;29;20458;-58
2023/06/27 01:47:54;;;;;;;3.77;2.43;;;22.20;59.00;;;;;;4901321;29;20443;-59
2023/06/27 01:50:20;;;;;;;3.37;2.30;;;21.70;59.00;;;;;;4904429;29;20515;-58
2023/06/27 01:52:46;;;;;;;2.73;1.80;;;21.60;59.80;;;;;;4900354;29;20996;-59
2023/06/27 01:55:11;;;;;;;4.03;2.23;;;21.70;60.60;;;;;;4904436;29;20190;-57
2023/06/27 01:57:37;;;;;;;2.67;2.43;;;21.60;59.90;;;;;;4905609;29;20218;-57
2023/06/27 02:00:04;;;;;;;5.97;2.27;;;21.60;60.00;;;;;;4902680;29;20245;-59
2023/06/27 02:02:30;;;;;;;3.13;1.88;;;21.40;60.90;;;;;;4904235;29;20269;-57
2023/06/27 02:04:56;;;;;;;3.00;1.97;;;21.40;62.00;;;;;;4901324;29;20719;-60
2023/06/27 02:07:21;;;;;;;3.53;1.77;;;21.30;60.80;;;;;;4903884;29;20247;-60
2023/06/27 02:09:47;;;;;;;2.73;1.80;;;21.10;61.50;;;;;;4903009;29;20656;-60
2023/06/27 02:12:12;;;;;;;2.70;1.83;;;21.10;62.00;;;;;;4905657;29;20210;-59
2023/06/27 02:14:41;;;;;;;2.73;1.87;;;21.00;62.60;;;;;;4905057;29;20214;-60
2023/06/27 02:17:06;;;;;;;1.95;1.70;;;21.00;62.50;;;;;;4901465;29;20197;-56
2023/06/27 02:19:32;;;;;;;3.03;2.10;;;20.80;62.70;;;;;;4902994;29;20198;-58
2023/06/27 02:21:58;;;;;;;4.70;2.30;;;21.00;64.70;;;;;;4901135;29;20787;-58
2023/06/27 02:24:23;;;;;;;2.30;2.03;;;21.20;63.80;;;;;;4898605;29;20213;-59
2023/06/27 02:26:49;;;;;;;2.20;1.83;;;21.30;63.00;;;;;;4904165;29;20209;-59
2023/06/27 02:29:15;;;;;;;3.53;1.90;;;21.50;61.80;;;;;;4899473;29;20186;-59
2023/06/27 02:31:40;;;;;;;2.87;2.23;;;21.60;61.30;;;;;;4899763;29;20214;-60
2023/06/27 02:34:06;;;;;;;1.70;1.60;;;21.50;61.90;;;;;;4902595;29;20194;-59
2023/06/27 02:36:31;;;;;;;3.47;2.00;;;21.50;60.80;;;;;;4903788;29;20232;-59
2023/06/27 02:39:00;;;;;;;1.87;1.67;;;21.30;61.00;;;;;;4903355;29;20615;-60
2023/06/27 02:41:26;;;;;;;2.95;2.33;;;21.10;61.90;;;;;;4902657;29;20209;-60
2023/06/27 02:43:52;;;;;;;2.90;2.03;;;21.20;63.60;;;;;;4906870;29;20219;-59
2023/06/27 02:46:18;;;;;;;2.90;2.20;;;21.50;62.30;;;;;;4901494;29;20607;-60
2023/06/27 02:48:43;;;;;;;2.43;1.97;;;21.50;60.90;;;;;;4899248;29;20447;-59
2023/06/27 02:51:09;;;;;;;2.47;2.00;;;21.30;62.40;;;;;;4901367;29;20488;-59
2023/06/27 02:53:34;;;;;;;2.17;1.80;;;21.50;61.90;;;;;;4899725;29;20623;-59
2023/06/27 02:56:02;;;;;;;2.43;2.23;;;21.50;61.50;;;;;;4902891;29;20197;-60
2023/06/27 02:58:31;;;;;;;3.80;2.30;;;21.30;60.70;;;;;;4896093;29;20203;-59
2023/06/27 03:01:06;;;;;;;3.13;2.35;;;21.00;61.90;;;;;;4905979;29;20297;-59
2023/06/27 03:03:32;;;;;;;4.50;2.80;;;21.10;61.80;;;;;;4903696;29;20213;-60
2023/06/27 03:06:02;;;;;;;3.63;1.70;;;21.10;61.60;;;;;;4901396;29;20660;-59
2023/06/27 03:08:30;;;;;;;2.88;2.05;;;20.80;61.80;;;;;;4905820;29;20813;-59
2023/06/27 03:10:56;;;;;;;4.68;2.63;;;20.60;63.00;;;;;;4899114;29;20235;-59
2023/06/27 03:13:22;;;;;;;2.30;1.80;;;20.90;63.70;;;;;;4903756;29;20691;-59
2023/06/27 03:15:47;;;;;;;3.43;2.00;;;21.10;63.70;;;;;;4903708;29;20457;-59
2023/06/27 03:18:13;;;;;;;3.23;1.70;;;21.30;61.40;;;;;;4896764;29;20265;-59
2023/06/27 03:20:38;;;;;;;3.07;2.43;;;21.30;61.50;;;;;;4904825;29;20190;-57
2023/06/27 03:23:04;;;;;;;2.90;2.17;;;21.00;62.10;;;;;;4898139;29;20222;-60
2023/06/27 03:25:29;;;;;;;3.67;2.13;;;20.90;63.10;;;;;;4904597;29;20229;-56
2023/06/27 03:27:55;;;;;;;6.17;2.57;;;21.00;63.60;;;;;;4896915;29;20178;-57
2023/06/27 03:30:21;;;;;;;4.10;2.10;;;21.30;61.40;;;;;;4905583;29;20675;-57
2023/06/27 03:32:46;;;;;;;4.00;1.90;;;21.10;61.40;;;;;;4899742;29;20581;-56
2023/06/27 03:35:12;;;;;;;3.43;1.93;;;20.90;62.30;;;;;;4898316;29;20564;-56
2023/06/27 03:37:38;;;;;;;2.80;1.77;;;20.90;63.60;;;;;;4905542;29;20606;-59
2023/06/27 03:40:04;;;;;;;5.03;2.27;;;21.00;63.50;;;;;;4901026;29;20197;-60
2023/06/27 03:42:30;;;;;;;2.72;1.85;;;21.30;62.30;;;;;;4899446;29;20214;-59
2023/06/27 03:44:56;;;;;;;2.70;1.90;;;21.10;61.60;;;;;;4902793;29;20453;-59
2023/06/27 03:47:23;;;;;;;2.70;2.00;;;21.00;61.70;;;;;;4902155;29;20882;-59
2023/06/27 03:49:48;;;;;;;2.88;1.90;;;21.00;62.40;;;;;;4900790;29;20190;-59
2023/06/27 03:52:14;;;;;;;3.63;2.30;;;21.00;63.10;;;;;;4900659;29;20214;-59
2023/06/27 03:54:39;;;;;;;3.00;1.63;;;21.30;62.70;;;;;;4899990;29;20326;-59
2023/06/27 03:57:05;;;;;;;2.13;1.97;;;21.50;61.40;;;;;;4903212;29;20194;-58
2023/06/27 03:59:32;;;;;;;2.80;2.30;;;21.20;60.60;;;;;;4902205;29;20190;-59
2023/06/27 04:01:58;;;;;;;3.15;2.20;;;20.80;61.50;;;;;;4899196;29;20533;-57
2023/06/27 04:04:24;;;;;;;3.17;2.20;;;20.50;62.60;;;;;;4901495;29;20206;-57
2023/06/27 04:06:49;;;;;;;3.70;2.05;;;20.40;63.10;;;;;;4901022;29;20557;-57
2023/06/27 04:09:15;;;;;;;1.80;1.70;;;20.60;62.70;;;;;;4903630;29;20420;-57
2023/06/27 04:11:41;;;;;;;2.60;2.10;;;21.00;64.40;;;;;;4900821;29;20232;-58
2023/06/27 04:14:06;;;;;;;3.27;2.03;;;21.30;62.50;;;;;;4901984;29;20190;-57
2023/06/27 04:16:32;;;;;;;4.10;2.67;;;21.50;60.70;;;;;;4900473;29;20194;-57
2023/06/27 04:18:57;;;;;;;3.40;2.07;;;21.40;60.20;;;;;;4897888;29;20560;-57
2023/06/27 04:21:23;;;;;;;4.47;2.07;;;21.60;61.20;;;;;;4901484;29;20572;-58
2023/06/27 04:23:54;;;;;;;3.20;2.07;;;21.90;62.10;;;;;;4903033;29;20707;-59
2023/06/27 04:26:19;;;;;;;2.90;2.20;;;22.10;61.40;;;;;;4900108;29;20803;-58
2023/06/27 04:28:47;;;;;;;4.30;2.53;;;22.40;60.20;;;;;;4902695;29;20442;-58
2023/06/27 04:31:13;;;;;;;3.63;2.27;;;22.70;59.80;;;;;;4898943;29;20543;-59
2023/06/27 04:33:42;;;;;;;3.80;1.90;;;22.90;59.30;;;;;;4898214;29;20498;-58
2023/06/27 04:36:08;;;;;;;3.47;2.00;;;23.00;58.40;;;;;;4901122;29;20505;-59
2023/06/27 04:38:37;;;;;;;3.27;2.30;;;23.10;58.40;;;;;;4899693;29;20467;-62
2023/06/27 04:41:04;;;;;;;3.20;2.23;;;23.30;57.70;;;;;;4897575;29;20449;-63
2023/06/27 04:43:32;;;;;;;4.70;2.13;;;23.20;57.20;;;;;;4896762;29;20471;-64
2023/06/27 04:45:58;;;;;;;5.03;1.97;;;23.10;57.60;;;;;;4902667;29;20445;-64
2023/06/27 04:48:24;;;;;;;3.23;1.90;;;22.90;57.20;;;;;;4901845;29;20824;-64
2023/06/27 04:50:50;;;;;;;3.10;1.77;;;22.70;57.90;;;;;;4902628;29;20450;-64
2023/06/27 04:53:19;;;;;;;3.97;2.33;;;22.70;58.10;;;;;;4906255;29;20210;-64
2023/06/27 04:55:47;;;;;;;4.80;2.40;;;22.60;57.10;;;;;;4902974;29;20194;-64
2023/06/27 04:58:12;;;;;;;2.10;1.90;;;22.30;57.30;;;;;;4902034;29;20643;-64
2023/06/27 05:00:38;;;;;;;11.30;2.30;;;22.00;58.20;;;;;;4904032;29;20469;-64
2023/06/27 05:03:03;;;;;;;6.00;2.53;;;21.70;58.40;;;;;;4901678;29;20209;-65
2023/06/27 05:05:33;;;;;;;2.50;2.23;;;21.20;59.20;;;;;;4902018;29;20254;-63
2023/06/27 05:08:03;;;;;;;6.35;4.18;;;21.10;60.00;;;;;;4900232;29;20185;-66
2023/06/27 05:10:30;;;;;;;4.93;3.90;;;20.90;61.20;;;;;;4906576;29;20187;-64
2023/06/27 05:12:56;;;;;;;3.47;3.17;;;20.90;61.30;;;;;;4900305;29;20222;-65
2023/06/27 05:15:22;;;;;;;6.32;2.92;;;20.70;62.30;;;;;;4895543;29;20463;-64
2023/06/27 05:18:15;;;;;;;4.53;2.10;;;20.50;62.20;;;;;;4899877;29;20197;-65
2023/06/27 05:20:44;;;;;;;4.05;2.45;;;20.40;62.80;;;;;;4899357;29;20195;-66
2023/06/27 05:23:10;;;;;;;4.45;2.35;;;20.50;64.00;;;;;;4895701;29;20215;-64
2023/06/27 05:25:36;;;;;;;3.50;2.23;;;20.50;63.50;;;;;;4897983;29;20281;-65
2023/06/27 05:28:02;;;;;;;4.50;1.53;;;20.50;63.50;;;;;;4901527;29;20872;-65
2023/06/27 05:30:28;;;;;;;3.27;1.93;;;20.60;66.10;;;;;;4900972;29;20186;-73
2023/06/27 05:32:54;;;;;;;3.30;2.20;;;21.00;65.40;;;;;;4905006;29;20221;-74
2023/06/27 05:35:21;;;;;;;2.47;1.58;;;21.30;64.20;;;;;;4905887;29;20205;-68
2023/06/27 05:37:47;;;;;;;3.17;1.70;;;21.50;64.30;;;;;;4901264;29;20195;-68
2023/06/27 05:40:13;;;;;;;1.40;1.30;;;21.80;63.00;;;;;;4904646;29;20309;-68
2023/06/27 05:42:42;;;;;;;2.90;2.20;;;22.00;62.40;;;;;;4900760;29;21096;-67
2023/06/27 05:45:08;;;;;;;3.50;1.80;;;22.70;61.60;;;;;;4899346;29;20467;-71
2023/06/27 05:47:34;;;;;;;3.07;2.53;;;22.40;60.90;;;;;;4904936;29;20499;-76
2023/06/27 05:50:00;;;;;;;1.93;1.83;;;22.40;59.30;;;;;;4906975;29;20450;-76
2023/06/27 05:52:25;;;;;;;3.97;2.17;;;22.80;59.80;;;;;;4901176;29;20481;-69
2023/06/27 05:54:51;;;;;;;3.30;2.10;;;23.00;59.50;;;;;;4904967;29;20190;-71
2023/06/27 05:57:18;;;;;;;4.13;1.93;;;23.10;58.80;;;;;;4907750;29;20601;-70
2023/06/27 05:59:44;;;;;;;2.90;2.03;;;23.20;58.60;;;;;;4907955;29;20497;-70
2023/06/27 06:02:09;;;;;;;2.30;2.10;;;23.30;58.20;;;;;;4907856;29;20475;-68
2023/06/27 06:04:35;;;;;;;2.30;2.10;;;23.40;57.90;;;;;;4898934;29;20576;-70
2023/06/27 06:07:03;;;;;;;2.10;1.93;;;23.40;57.60;;;;;;4899367;29;20244;-69
2023/06/27 06:09:30;;;;;;;3.87;2.20;;;23.60;57.40;;;;;;4906384;29;20186;-72
2023/06/27 06:11:58;;;;;;;2.07;1.90;;;23.60;57.50;;;;;;4898301;29;20459;-70
2023/06/27 06:14:24;;;;;;;1.80;1.70;;;23.70;57.10;;;;;;4906525;29;20454;-70
2023/06/27 06:16:50;;;;;;;4.83;3.00;;;23.80;57.00;;;;;;4902068;29;20872;-68
2023/06/27 06:19:15;;;;;;;2.53;2.03;;;23.60;55.60;;;;;;4899292;29;20194;-69
2023/06/27 06:21:41;;;;;;;2.93;2.43;;;23.30;55.60;;;;;;4905469;29;20217;-70
2023/06/27 06:24:10;;;;;;;4.40;2.30;;;23.00;56.30;;;;;;4899740;29;20213;-68
2023/06/27 06:26:36;;;;;;;4.50;2.50;;;22.50;56.00;;;;;;4901046;29;20202;-70
2023/06/27 06:29:06;;;;;;;3.67;2.37;;;22.30;57.50;;;;;;4907133;29;20545;-68
2023/06/27 06:31:31;;;;;;;4.03;2.87;;;22.50;57.70;;;;;;4904031;29;21171;-68
2023/06/27 06:33:57;;;;;;;2.83;2.50;;;22.50;56.60;;;;;;4899985;29;20447;-67
2023/06/27 06:36:26;;;;;;;3.60;2.30;;;22.40;56.90;;;;;;4904421;29;20285;-72
2023/06/27 06:38:51;;;;;;;6.40;2.83;;;22.60;57.20;;;;;;4905391;29;20659;-73
2023/06/27 06:41:18;;;;;;;6.77;3.93;;;22.40;56.40;;;;;;4899918;29;20450;-74
2023/06/27 06:43:44;;;;;;;3.07;2.27;;;22.40;56.80;;;;;;4902228;29;20211;-70
2023/06/27 06:46:09;;;;;;;3.03;2.33;;;22.70;56.70;;;;;;4909009;29;20442;-71
2023/06/27 06:48:36;;;;;;;4.63;2.30;;;22.80;56.00;;;;;;4920232;29;20213;-71
2023/06/27 06:51:01;;;;;;;12.50;4.40;;;22.90;54.80;;;;;;4904730;29;20450;-68
2023/06/27 06:53:27;;;;;;;3.80;2.10;;;22.90;54.40;;;;;;4908290;29;20501;-68
2023/06/27 06:55:53;;;;;;;4.87;2.23;;;23.00;54.20;;;;;;4901220;29;20462;-67
2023/06/27 06:58:18;;;;;;;3.83;2.27;;;23.00;54.50;;;;;;4902974;29;20197;-68
2023/06/27 07:00:44;;;;;;;3.53;2.30;;;23.00;54.10;;;;;;4907506;29;20246;-67
2023/06/27 07:03:10;;;;;;;2.40;1.80;;;23.00;54.90;;;;;;4910256;29;20213;-71
2023/06/27 07:05:36;;;;;;;2.50;2.30;;;23.20;54.60;;;;;;4898737;29;20273;-71
2023/06/27 07:08:05;;;;;;;2.80;2.07;;;23.50;54.20;;;;;;4898408;29;20183;-71
2023/06/27 07:10:31;;;;;;;6.83;3.00;;;24.00;52.00;;;;;;4897638;29;20451;-69
2023/06/27 07:12:57;;;;;;;3.70;2.83;;;23.70;51.70;;;;;;4907580;29;20473;-73
2023/06/27 07:15:23;;;;;;;3.80;2.17;;;23.70;52.70;;;;;;4902716;29;20543;-72
2023/06/27 07:17:53;;;;;;;3.10;2.27;;;23.80;53.10;;;;;;4901814;29;20465;-69
2023/06/27 07:20:22;;;;;;;4.20;2.43;;;24.40;52.40;;;;;;4903280;29;20451;-70
2023/06/27 07:22:51;;;;;;;2.90;2.40;;;25.30;51.40;;;;;;4899691;29;20595;-72
2023/06/27 07:25:18;;;;;;;5.63;2.50;;;26.20;49.80;;;;;;4901891;29;20457;-72
2023/06/27 07:27:44;;;;;;;4.33;2.13;;;25.90;49.50;;;;;;4903340;29;20445;-72
2023/06/27 07:30:10;;;;;;;3.60;2.50;;;26.20;49.60;;;;;;4903983;29;20549;-75
2023/06/27 07:32:37;;;;;;;3.80;2.90;;;27.10;48.20;;;;;;4905673;29;20514;-75
2023/06/27 07:35:04;;;;;;;5.00;2.47;;;27.20;47.00;;;;;;4908377;29;20542;-76
2023/06/27 07:37:30;;;;;;;3.30;2.30;;;27.70;46.60;;;;;;4904817;29;20191;-75
2023/06/27 07:39:55;;;;;;;3.00;2.30;;;28.20;46.00;;;;;;4903999;29;20478;-75
2023/06/27 07:42:21;;;;;;;3.70;2.20;;;27.70;46.10;;;;;;4904063;29;20215;-76
2023/06/27 07:44:46;;;;;;;4.67;2.50;;;29.20;44.70;;;;;;4905112;29;20861;-70
2023/06/27 07:47:12;;;;;;;4.70;2.90;;;31.00;42.30;;;;;;4906780;29;20199;-73
2023/06/27 07:49:37;;;;;;;3.63;2.30;;;31.50;40.60;;;;;;4905785;29;20274;-73
2023/06/27 07:52:07;;;;;;;7.03;2.90;;;30.50;41.20;;;;;;4901604;29;20198;-73
2023/06/27 07:54:33;;;;;;;4.37;2.63;;;29.30;43.50;;;;;;4904476;29;20240;-72
2023/06/27 07:56:59;;;;;;;3.17;2.30;;;29.50;43.50;;;;;;4904981;29;20864;-71
2023/06/27 07:59:24;;;;;;;3.57;1.97;;;30.20;41.80;;;;;;4901884;29;20455;-71
2023/06/27 08:01:50;;;;;;;3.20;2.10;;;30.10;41.40;;;;;;4901182;29;20300;-69
2023/06/27 08:04:15;;;;;;;3.43;2.53;;;29.30;42.40;;;;;;4902052;29;20231;-68
2023/06/27 08:06:42;;;;;;;4.80;2.27;;;29.40;43.00;;;;;;4903317;29;20190;-74
2023/06/27 08:09:08;;;;;;;2.43;2.23;;;28.70;43.00;;;;;;4901847;29;20275;-72
2023/06/27 08:11:34;;;;;;;7.47;5.80;;;27.90;44.50;;;;;;4907619;29;20568;-72
2023/06/27 08:14:00;;;;;;;4.77;2.57;;;27.20;45.00;;;;;;4909134;29;20466;-69
2023/06/27 08:16:25;;;;;;;4.63;2.30;;;26.80;46.30;;;;;;4901410;29;20445;-72
2023/06/27 08:18:51;;;;;;;5.63;2.60;;;26.20;47.00;;;;;;4906425;29;20449;-72
2023/06/27 08:21:17;;;;;;;3.33;2.30;;;27.90;45.30;;;;;;4901412;29;20200;-72
2023/06/27 08:23:42;;;;;;;2.30;2.10;;;28.10;45.80;;;;;;4903160;29;20316;-74
2023/06/27 08:26:16;;;;;;;4.97;2.67;;;28.90;43.70;;;;;;4910176;29;20456;-69
2023/06/27 08:28:42;;;;;;;4.80;2.43;;;28.80;42.80;;;;;;4909511;29;20189;-71
2023/06/27 08:31:10;;;;;;;2.70;2.40;;;29.00;42.00;;;;;;4904566;29;20439;-68
2023/06/27 08:33:35;;;;;;;2.97;2.40;;;29.00;42.50;;;;;;4898071;29;20461;-69
2023/06/27 08:36:01;;;;;;;3.73;2.70;;;29.40;41.70;;;;;;4899778;29;20455;-70
2023/06/27 08:38:27;;;;;;;4.30;2.30;;;30.10;40.90;;;;;;4910082;29;20664;-72
2023/06/27 08:40:54;;;;;;;2.77;2.53;;;30.40;40.80;;;;;;4909391;29;20247;-72
2023/06/27 08:43:20;;;;;;;8.77;2.20;;;30.70;39.70;;;;;;4909630;29;20315;-70
2023/06/27 08:45:47;;;;;;;2.10;1.90;;;30.80;38.90;;;;;;4909018;29;20480;-71
2023/06/27 08:48:15;;;;;;;2.40;2.20;;;31.90;38.80;;;;;;4901080;29;20199;-72
2023/06/27 08:50:42;;;;;;;3.73;2.40;;;33.20;36.40;;;;;;4906233;29;20446;-69
2023/06/27 08:53:10;;;;;;;4.60;2.33;;;33.50;35.80;;;;;;4902175;29;20475;-72
2023/06/27 08:56:01;;;;;;;3.13;2.47;;;34.10;35.20;;;;;;4906267;29;20454;-77
2023/06/27 08:58:52;;;;;;;3.67;2.70;;;34.10;34.20;;;;;;4894418;29;20447;-76
2023/06/27 09:01:20;;;;;;;4.60;2.33;;;31.90;36.20;;;;;;4907538;29;21343;-76
2023/06/27 09:03:46;;;;;;;4.57;2.70;;;30.70;38.40;;;;;;4908095;29;20497;-75
2023/06/27 09:06:12;;;;;;;3.03;2.73;;;29.90;40.00;;;;;;4906446;29;20799;-71
2023/06/27 09:08:37;;;;;;;2.43;2.23;;;28.80;41.30;;;;;;4906361;29;20197;-71
2023/06/27 09:11:08;;;;;;;3.83;2.87;;;27.70;43.50;;;;;;4905411;29;20454;-72
2023/06/27 09:13:34;;;;;;;4.13;2.87;;;26.80;45.00;;;;;;4907074;29;20734;-73
2023/06/27 09:16:00;;;;;;;3.20;2.90;;;26.40;46.20;;;;;;4902933;29;20843;-73
2023/06/27 09:18:25;;;;;;;3.43;2.67;;;26.00;47.30;;;;;;4904763;29;20450;-71
2023/06/27 09:20:54;;;;;;;3.73;2.20;;;26.80;46.50;;;;;;4900052;29;20274;-71
2023/06/27 09:23:20;;;;;;;5.90;4.00;;;28.40;44.30;;;;;;4898838;29;20222;-67
2023/06/27 09:26:12;;;;;;;4.07;2.50;;;29.10;42.40;;;;;;4900218;29;20469;-69
2023/06/27 09:28:52;;;;;;;2.40;2.20;;;29.60;41.30;;;;;;4904597;29;20449;-71
2023/06/27 09:31:21;;;;;;;4.57;2.50;;;29.70;41.50;;;;;;4904916;29;20438;-73
2023/06/27 09:33:48;;;;;;;4.63;2.30;;;30.90;40.30;;;;;;4900446;29;20543;-71
2023/06/27 09:37:00;;;;;;;3.70;3.40;;;30.50;39.60;;;;;;4903673;29;20525;-70
2023/06/27 09:39:26;;;;;;;2.33;2.13;;;30.70;39.80;;;;;;4815615;29;20481;-72
2023/06/27 09:41:52;;;;;;;5.17;2.00;;;30.00;40.50;;;;;;4814988;29;21043;-72
2023/06/27 09:44:19;;;;;;;3.67;2.27;;;29.20;41.60;;;;;;4864808;29;20493;-77
2023/06/27 09:46:49;;;;;;;6.23;3.80;;;28.00;43.60;;;;;;4907049;29;20233;-78
2023/06/27 09:49:16;;;;;;;2.73;2.53;;;26.70;45.50;;;;;;4915676;29;20446;-72
2023/06/27 09:51:45;;;;;;;3.57;2.87;;;26.50;46.80;;;;;;4905687;29;20529;-72
2023/06/27 09:54:12;;;;;;;3.20;2.50;;;26.10;46.80;;;;;;4907197;29;20453;-76
2023/06/27 09:57:14;;;;;;;4.80;2.50;;;25.90;47.80;;;;;;4906993;29;20982;-73
2023/06/27 09:59:40;;;;;;;5.53;2.83;;;25.50;47.80;;;;;;4909090;29;20540;-75
2023/06/27 10:02:12;;;;;;;3.10;2.40;;;25.90;47.70;;;;;;4906780;29;20576;-74
2023/06/27 10:04:37;;;;;;;3.13;2.53;;;26.00;48.20;;;;;;4910128;29;20759;-75
2023/06/27 10:07:03;;;;;;;2.93;2.60;;;25.60;47.80;;;;;;4903077;29;20450;-72
2023/06/27 10:09:29;;;;;;;5.53;2.70;;;25.60;48.30;;;;;;4910765;29;20192;-72
2023/06/27 10:11:55;;;;;;;4.20;2.40;;;25.80;48.40;;;;;;4908320;29;20205;-72
2023/06/27 10:14:21;;;;;;;2.70;2.50;;;25.70;48.10;;;;;;4910553;29;20665;-72
2023/06/27 10:16:48;;;;;;;3.00;2.13;;;25.60;47.50;;;;;;4906444;29;20259;-72
2023/06/27 10:19:15;;;;;;;3.93;2.90;;;25.70;47.70;;;;;;4908307;29;20447;-72
2023/06/27 10:21:42;;;;;;;4.50;2.13;;;25.30;47.60;;;;;;4908609;29;20468;-72
2023/06/27 10:24:10;;;;;;;4.90;3.10;;;25.00;47.90;;;;;;4909625;29;20482;-72
2023/06/27 10:26:36;;;;;;;5.20;3.00;;;25.20;48.20;;;;;;4905936;29;20508;-71
2023/06/27 10:29:14;;;;;;;3.20;2.73;;;25.50;47.90;;;;;;4905706;29;20453;-72
2023/06/27 10:31:45;;;;;;;6.63;5.30;;;26.00;47.10;;;;;;4901180;29;20464;-72
2023/06/27 10:34:18;;;;;;;4.50;2.73;;;26.10;46.80;;;;;;4902317;29;20447;-72
2023/06/27 10:36:58;;;;;;;2.50;2.30;;;25.90;46.40;;;;;;4900030;29;20458;-69
2023/06/27 10:39:34;;;;;;;3.27;2.60;;;26.30;47.00;;;;;;4906579;29;20449;-72
2023/06/27 10:42:18;;;;;;;3.07;2.30;;;26.70;45.80;;;;;;4907928;29;21103;-72
2023/06/27 10:45:07;;;;;;;3.00;2.73;;;26.70;45.30;;;;;;4905733;29;20470;-71
2023/06/27 10:47:41;;;;;;;3.13;2.10;;;27.50;45.20;;;;;;4901250;29;20450;-72
2023/06/27 10:50:09;;;;;;;5.00;3.00;;;27.00;45.00;;;;;;4904465;29;20570;-73
2023/06/27 10:52:35;;;;;;;6.20;2.90;;;27.50;44.30;;;;;;4902554;29;20497;-71
2023/06/27 10:55:18;;;;;;;3.93;2.57;;;27.50;43.60;;;;;;4901597;29;20487;-72
2023/06/27 10:57:45;;;;;;;2.40;2.10;;;27.80;43.50;;;;;;4907166;29;20200;-75
2023/06/27 11:00:26;;;;;;;3.40;2.37;;;27.90;43.20;;;;;;4907725;29;20493;-73
2023/06/27 11:02:54;;;;;;;3.20;2.50;;;27.90;43.10;;;;;;4898789;29;20863;-74
2023/06/27 11:05:53;;;;;;;3.63;2.33;;;27.70;43.50;;;;;;4907516;29;20450;-74
2023/06/27 11:08:19;;;;;;;5.13;2.53;;;27.50;43.30;;;;;;4902297;29;20448;-73
2023/06/27 11:11:08;;;;;;;3.30;2.70;;;27.10;44.20;;;;;;4909365;29;20453;-72
2023/06/27 11:13:36;;;;;;;3.93;2.40;;;26.90;44.50;;;;;;4902801;29;20990;-76
2023/06/27 11:16:03;;;;;;;7.90;3.10;;;26.60;44.50;;;;;;4905355;29;20525;-74
2023/06/27 11:18:30;;;;;;;6.37;2.80;;;26.60;45.20;;;;;;4904479;29;20457;-71
2023/06/27 11:20:56;;;;;;;3.77;2.40;;;26.70;45.10;;;;;;4903096;29;20538;-72
2023/06/27 11:23:23;;;;;;;3.07;2.60;;;26.60;45.30;;;;;;4899505;29;20481;-71
2023/06/27 11:25:49;;;;;;;3.50;2.23;;;26.60;45.60;;;;;;4904664;29;20462;-70
2023/06/27 11:28:21;;;;;;;3.80;2.30;;;26.70;44.70;;;;;;4894899;29;20443;-73
2023/06/27 11:30:46;;;;;;;3.93;2.00;;;26.60;44.80;;;;;;4905549;29;20190;-70
2023/06/27 11:33:16;;;;;;;2.63;2.40;;;26.60;45.20;;;;;;4899079;29;20474;-70
2023/06/27 11:35:41;;;;;;;3.53;2.53;;;26.40;45.10;;;;;;4901868;29;20221;-71
2023/06/27 11:38:08;;;;;;;2.50;2.30;;;26.20;45.30;;;;;;4903193;29;20481;-72
2023/06/27 11:40:34;;;;;;;4.47;2.33;;;26.20;46.00;;;;;;4905921;29;20655;-71
2023/06/27 11:43:04;;;;;;;3.63;2.87;;;26.30;46.40;;;;;;4902489;29;21007;-74
2023/06/27 11:45:33;;;;;;;3.97;2.63;;;26.90;45.60;;;;;;4905921;29;20442;-76
2023/06/27 11:48:00;;;;;;;3.47;2.30;;;27.10;45.60;;;;;;4907124;29;20859;-72
2023/06/27 11:50:27;;;;;;;2.60;2.40;;;26.70;45.10;;;;;;4904927;29;20450;-72
2023/06/27 11:52:55;;;;;;;4.70;2.63;;;26.90;44.50;;;;;;4904706;29;20473;-73
2023/06/27 11:55:21;;;;;;;8.60;3.00;;;27.20;44.60;;;;;;4899934;29;20550;-70
2023/06/27 11:57:54;;;;;;;4.53;2.43;;;27.00;44.60;;;;;;4906118;29;20496;-70
2023/06/27 12:00:23;;;;;;;4.80;2.40;;;26.80;44.30;;;;;;4908319;29;20190;-73
2023/06/27 12:02:50;;;;;;;4.80;3.00;;;26.60;45.00;;;;;;4905380;29;20485;-72
2023/06/27 12:05:16;;;;;;;3.50;2.70;;;26.50;44.80;;;;;;4908133;29;20442;-72
2023/06/27 12:07:54;;;;;;;3.93;2.43;;;26.40;45.10;;;;;;4908864;29;20594;-72
2023/06/27 12:10:27;;;;;;;2.73;2.43;;;26.40;45.30;;;;;;4901328;29;20545;-72
2023/06/27 12:12:54;;;;;;;3.67;2.30;;;25.90;45.80;;;;;;4904705;29;20571;-73
2023/06/27 12:15:19;;;;;;;2.93;2.40;;;25.80;46.30;;;;;;4902423;29;20589;-73
2023/06/27 12:18:03;;;;;;;3.43;2.60;;;25.90;46.60;;;;;;4911933;29;20194;-73
2023/06/27 12:20:43;;;;;;;4.37;2.40;;;25.80;46.30;;;;;;4908259;29;20196;-73
2023/06/27 12:23:10;;;;;;;4.40;2.53;;;25.60;46.70;;;;;;4905735;29;20536;-72
2023/06/27 12:25:39;;;;;;;6.10;2.27;;;25.30;47.00;;;;;;4908225;29;20481;-73
2023/06/27 12:30:36;;;;;;;3.30;2.90;;;25.00;48.10;;;;;;4985023;23;20509;-75
2023/06/27 12:33:02;;;;;;;3.13;2.50;;;25.40;48.00;;;;;;4921513;29;20471;-75
2023/06/27 12:35:28;;;;;;;5.67;2.87;;;25.60;47.40;;;;;;4923662;29;20195;-75
2023/06/27 12:37:53;;;;;;;3.47;2.57;;;25.70;47.50;;;;;;4923214;29;20457;-75
2023/06/27 12:40:22;;;;;;;3.73;2.60;;;25.90;46.90;;;;;;4925745;29;20185;-75
2023/06/27 12:42:50;;;;;;;3.40;2.80;;;25.90;46.60;;;;;;4915703;29;20689;-75
2023/06/27 12:45:16;;;;;;;2.90;2.70;;;26.10;46.30;;;;;;4916924;29;20523;-75
2023/06/27 12:47:43;;;;;;;3.70;3.27;;;25.80;46.80;;;;;;4928320;29;20532;-75
2023/06/27 12:50:16;;;;;;;3.00;2.63;;;25.90;46.80;;;;;;4924066;29;20892;-75
2023/06/27 12:52:48;;;;;;;5.67;4.20;;;26.00;46.40;;;;;;4930746;29;20855;-75
2023/06/27 12:55:19;;;;;;;4.27;3.07;;;26.00;46.60;;;;;;4927425;29;20948;-74